createdAt,value
2023-01-29T00:01:06.597Z,100966.16
2023-01-29T00:04:09.342Z,100971.44
2023-01-29T00:07:12.311Z,100970.25
2023-01-29T00:10:15.555Z,100973.00
2023-01-29T00:13:19.082Z,100977.56
2023-01-29T00:16:21.885Z,100992.19
2023-01-29T00:19:24.669Z,100991.16
2023-01-29T00:22:27.541Z,100981.63
2023-01-29T00:25:30.812Z,100985.31
2023-01-29T00:28:33.831Z,100985.75
2023-01-29T00:31:37.108Z,100980.47
2023-01-29T00:34:39.926Z,100987.94
2023-01-29T00:37:42.737Z,100987.59
2023-01-29T00:41:04.511Z,100986.69
2023-01-29T00:44:26.646Z,100983.22
2023-01-29T00:47:35.538Z,100996.91
2023-01-29T00:50:38.455Z,100993.44
2023-01-29T00:53:41.968Z,101007.19
2023-01-29T00:56:44.711Z,101006.53
2023-01-29T00:59:47.659Z,101005.81
2023-01-29T01:03:05.713Z,101010.78
2023-01-29T01:06:11.018Z,101004.28
2023-01-29T01:09:32.533Z,101008.28
2023-01-29T01:12:37.272Z,101004.63
2023-01-29T01:15:40.818Z,101006.19
2023-01-29T01:18:43.556Z,101008.22
2023-01-29T01:21:48.432Z,101015.25
2023-01-29T01:24:51.200Z,101013.78
2023-01-29T01:31:15.728Z,101009.22
2023-01-29T01:34:18.568Z,101007.47
2023-01-29T01:37:21.583Z,101009.84
2023-01-29T01:40:25.903Z,101002.72
2023-01-29T01:43:28.733Z,101007.72
2023-01-29T01:46:34.175Z,101013.75
2023-01-29T01:49:37.167Z,101017.38
2023-01-29T01:52:45.317Z,101018.69
2023-01-29T01:55:56.002Z,101022.16
2023-01-29T01:58:59.542Z,101018.78
2023-01-29T02:02:21.097Z,101016.88
2023-01-29T02:05:42.701Z,101014.22
2023-01-29T02:09:13.772Z,101018.50
2023-01-29T02:12:17.346Z,101030.56
2023-01-29T02:15:20.111Z,101028.34
2023-01-29T02:18:23.160Z,101033.38
2023-01-29T02:21:46.135Z,101031.47
2023-01-29T02:25:26.984Z,101034.38
2023-01-29T02:28:54.568Z,101030.81
2023-01-29T02:32:20.572Z,101036.00
2023-01-29T02:35:32.299Z,101047.97
2023-01-29T02:38:50.408Z,101050.34
2023-01-29T02:42:15.463Z,101049.00
2023-01-29T02:45:42.349Z,101050.53
2023-01-29T02:49:24.545Z,101065.13
2023-01-29T02:52:31.712Z,101064.47
2023-01-29T02:55:37.445Z,101071.03
2023-01-29T02:58:45.696Z,101074.13
2023-01-29T03:01:54.852Z,101057.28
2023-01-29T03:05:06.463Z,101071.03
2023-01-29T03:08:15.870Z,101070.22
2023-01-29T03:11:21.262Z,101067.81
2023-01-29T03:14:56.585Z,101076.97
2023-01-29T03:18:08.853Z,101074.84
2023-01-29T03:21:38.521Z,101076.06
2023-01-29T03:25:05.771Z,101076.88
2023-01-29T03:28:31.179Z,101078.66
2023-01-29T03:31:53.192Z,101070.25
2023-01-29T03:35:04.126Z,101076.41
2023-01-29T03:38:10.513Z,101082.34
2023-01-29T03:41:50.163Z,101088.19
2023-01-29T03:45:14.238Z,101083.38
2023-01-29T03:48:45.838Z,101068.72
2023-01-29T03:52:12.614Z,101078.88
2023-01-29T03:55:21.696Z,101070.84
2023-01-29T03:58:35.931Z,101075.22
2023-01-29T04:01:47.733Z,101080.28
2023-01-29T04:04:53.699Z,101080.44
2023-01-29T04:08:13.114Z,101080.28
2023-01-29T04:11:21.128Z,101089.75
2023-01-29T04:14:24.032Z,101077.72
2023-01-29T04:17:36.110Z,101058.53
2023-01-29T04:20:47.467Z,101078.84
2023-01-29T04:23:50.276Z,101077.34
2023-01-29T04:26:58.132Z,101088.59
2023-01-29T04:30:25.637Z,101085.38
2023-01-29T04:34:10.402Z,101083.31
2023-01-29T04:37:19.637Z,101080.59
2023-01-29T04:40:48.720Z,101082.81
2023-01-29T04:44:13.135Z,101082.25
2023-01-29T04:47:28.034Z,101090.81
2023-01-29T04:50:42.549Z,101079.38
2023-01-29T04:54:04.993Z,101091.34
2023-01-29T04:57:29.641Z,101089.09
2023-01-29T05:00:39.346Z,101092.38
2023-01-29T05:03:46.975Z,101090.75
2023-01-29T05:06:51.075Z,101090.25
2023-01-29T05:09:54.110Z,101097.34
2023-01-29T05:13:03.471Z,101106.31
2023-01-29T05:16:17.788Z,101118.69
2023-01-29T05:19:20.581Z,101119.69
2023-01-29T05:22:24.405Z,101128.00
2023-01-29T05:25:30.131Z,101118.19
2023-01-29T05:28:32.853Z,101125.09
2023-01-29T05:31:35.688Z,101126.75
2023-01-29T05:34:38.672Z,101120.72
2023-01-29T05:37:41.491Z,101125.19
2023-01-29T05:41:04.213Z,101133.84
2023-01-29T05:44:06.956Z,101134.78
2023-01-29T05:47:09.857Z,101131.13
2023-01-29T05:50:14.893Z,101129.72
2023-01-29T05:53:17.827Z,101135.06
2023-01-29T05:56:20.552Z,101138.13
2023-01-29T05:59:23.343Z,101147.94
2023-01-29T06:02:26.034Z,101147.38
2023-01-29T06:05:28.784Z,101152.47
2023-01-29T06:08:31.668Z,101155.03
2023-01-29T06:11:34.497Z,101155.75
2023-01-29T06:14:37.223Z,101141.34
2023-01-29T06:17:39.996Z,101162.28
2023-01-29T06:20:43.183Z,101160.81
2023-01-29T06:23:45.948Z,101162.28
2023-01-29T06:26:48.790Z,101160.38
2023-01-29T06:29:51.557Z,101154.28
2023-01-29T06:33:01.756Z,101168.78
2023-01-29T06:36:05.522Z,101167.69
2023-01-29T06:39:08.602Z,101167.03
2023-01-29T06:42:12.900Z,101168.59
2023-01-29T06:45:15.833Z,101166.78
2023-01-29T06:48:19.131Z,101176.28
2023-01-29T06:51:23.106Z,101170.78
2023-01-29T06:54:25.963Z,101171.41
2023-01-29T06:57:31.615Z,101174.63
2023-01-29T07:00:35.092Z,101168.34
2023-01-29T07:03:38.360Z,101186.16
2023-01-29T07:06:41.194Z,101193.59
2023-01-29T07:09:44.092Z,101192.00
2023-01-29T07:12:46.957Z,101177.41
2023-01-29T07:15:49.659Z,101195.31
2023-01-29T07:18:52.464Z,101193.09
2023-01-29T07:21:55.515Z,101196.03
2023-01-29T07:24:58.592Z,101198.34
2023-01-29T07:28:02.073Z,101193.34
2023-01-29T07:31:06.278Z,101194.88
2023-01-29T07:34:09.034Z,101174.88
2023-01-29T07:37:11.821Z,101182.75
2023-01-29T07:40:15.331Z,101187.44
2023-01-29T07:43:19.441Z,101187.84
2023-01-29T07:46:22.123Z,101188.91
2023-01-29T07:49:24.872Z,101205.72
2023-01-29T07:52:30.198Z,101195.16
2023-01-29T07:55:34.050Z,101192.16
2023-01-29T07:58:36.948Z,101190.06
2023-01-29T08:01:39.663Z,101185.66
2023-01-29T08:04:42.349Z,101192.44
2023-01-29T08:07:51.451Z,101194.97
2023-01-29T08:11:02.838Z,101201.38
2023-01-29T08:14:05.579Z,101205.38
2023-01-29T08:17:08.290Z,101202.56
2023-01-29T08:20:19.636Z,101207.78
2023-01-29T08:23:22.605Z,101207.44
2023-01-29T08:26:27.421Z,101205.84
2023-01-29T08:29:30.246Z,101210.53
2023-01-29T08:32:33.021Z,101207.50
2023-01-29T08:35:36.248Z,101206.06
2023-01-29T08:38:39.057Z,101210.00
2023-01-29T08:41:41.756Z,101208.88
2023-01-29T08:44:44.460Z,101215.78
2023-01-29T08:47:49.016Z,101209.94
2023-01-29T08:50:52.017Z,101213.78
2023-01-29T08:53:54.790Z,101204.34
2023-01-29T08:56:57.557Z,101205.38
2023-01-29T09:00:00.584Z,101205.25
2023-01-29T09:03:04.009Z,101204.59
2023-01-29T09:06:08.843Z,101207.94
2023-01-29T09:09:12.058Z,101209.84
2023-01-29T09:12:14.805Z,101204.50
2023-01-29T09:15:17.977Z,101202.50
2023-01-29T09:18:22.100Z,101207.56
2023-01-29T09:21:24.854Z,101192.97
2023-01-29T09:24:27.788Z,101198.09
2023-01-29T09:27:30.968Z,101191.06
2023-01-29T09:30:34.833Z,101177.34
2023-01-29T09:33:37.979Z,101178.81
2023-01-29T09:36:40.759Z,101181.84
2023-01-29T09:39:44.332Z,101184.84
2023-01-29T09:42:54.533Z,101192.72
2023-01-29T09:46:05.679Z,101193.97
2023-01-29T09:49:26.327Z,101187.94
2023-01-29T09:52:40.669Z,101185.13
2023-01-29T09:55:51.651Z,101183.66
2023-01-29T09:59:00.479Z,101183.75
2023-01-29T10:02:21.877Z,101191.81
2023-01-29T10:06:06.388Z,101191.53
2023-01-29T10:09:46.275Z,101195.09
2023-01-29T10:13:20.434Z,101193.59
2023-01-29T10:16:52.317Z,101193.25
2023-01-29T10:20:02.781Z,101188.78
2023-01-29T10:23:22.459Z,101184.78
2023-01-29T10:26:27.670Z,101187.69
2023-01-29T10:29:33.080Z,101196.28
2023-01-29T10:32:37.401Z,101200.22
2023-01-29T10:35:50.189Z,101195.03
2023-01-29T10:38:53.235Z,101202.75
2023-01-29T10:42:14.413Z,101202.69
2023-01-29T10:45:42.989Z,101206.44
2023-01-29T10:48:59.430Z,101197.16
2023-01-29T10:52:25.009Z,101201.72
2023-01-29T10:56:14.115Z,101191.22
2023-01-29T10:59:36.079Z,101197.03
2023-01-29T11:02:50.397Z,101182.53
2023-01-29T11:06:13.053Z,101193.28
2023-01-29T11:09:29.559Z,101195.50
2023-01-29T11:12:33.793Z,101191.91
2023-01-29T11:15:36.800Z,101198.09
2023-01-29T11:18:55.420Z,101208.59
2023-01-29T11:22:01.274Z,101191.34
2023-01-29T11:25:20.176Z,101202.38
2023-01-29T11:28:40.682Z,101211.81
2023-01-29T11:31:43.955Z,101205.16
2023-01-29T11:35:12.679Z,101206.72
2023-01-29T11:38:26.841Z,101187.97
2023-01-29T11:41:29.717Z,101190.53
2023-01-29T11:44:32.951Z,101187.00
2023-01-29T11:47:35.932Z,101180.06
2023-01-29T11:50:38.648Z,101177.13
2023-01-29T11:53:45.730Z,101173.66
2023-01-29T11:56:49.225Z,101178.38
2023-01-29T11:59:54.337Z,101164.69
2023-01-29T12:03:11.852Z,101159.34
2023-01-29T12:06:28.375Z,101183.00
2023-01-29T12:09:31.519Z,101168.47
2023-01-29T12:12:40.287Z,101175.03
2023-01-29T12:15:43.390Z,101156.53
2023-01-29T12:19:12.188Z,101158.25
2023-01-29T12:22:25.091Z,101155.66
2023-01-29T12:25:41.555Z,101153.97
2023-01-29T12:29:10.473Z,101149.28
2023-01-29T12:32:43.543Z,101136.50
2023-01-29T12:35:57.655Z,101146.28
2023-01-29T12:39:01.033Z,101124.84
2023-01-29T12:42:13.407Z,101143.50
2023-01-29T12:45:25.250Z,101144.16
2023-01-29T12:48:34.975Z,101134.06
2023-01-29T12:51:49.082Z,101133.09
2023-01-29T12:55:03.297Z,101143.59
2023-01-29T12:58:24.343Z,101132.75
2023-01-29T13:01:36.977Z,101121.41
2023-01-29T13:04:45.729Z,101122.63
2023-01-29T13:07:56.272Z,101123.81
2023-01-29T13:11:06.436Z,101116.69
2023-01-29T13:14:23.018Z,101110.81
2023-01-29T13:17:37.939Z,101108.59
2023-01-29T13:20:41.373Z,101105.06
2023-01-29T13:23:47.533Z,101098.31
2023-01-29T13:26:51.458Z,101106.25
2023-01-29T13:29:56.046Z,101111.81
2023-01-29T13:33:10.382Z,101112.63
2023-01-29T13:36:20.307Z,101115.44
2023-01-29T13:39:32.873Z,101108.94
2023-01-29T13:42:38.519Z,101116.16
2023-01-29T13:45:45.366Z,101111.16
2023-01-29T13:48:52.362Z,101115.34
2023-01-29T13:51:55.728Z,101124.19
2023-01-29T13:55:03.270Z,101125.72
2023-01-29T13:58:16.131Z,101123.34
2023-01-29T14:01:47.879Z,101126.75
2023-01-29T14:04:51.018Z,101125.69
2023-01-29T14:07:54.081Z,101125.53
2023-01-29T14:11:15.433Z,101128.13
2023-01-29T14:14:48.975Z,101123.44
2023-01-29T14:18:20.789Z,101125.88
2023-01-29T14:21:29.873Z,101109.84
2023-01-29T14:24:34.044Z,101116.56
2023-01-29T14:27:37.559Z,101102.13
2023-01-29T14:30:45.811Z,101110.94
2023-01-29T14:33:49.160Z,101109.50
2023-01-29T14:36:57.874Z,101102.25
2023-01-29T14:40:24.145Z,101100.34
2023-01-29T14:43:26.876Z,101097.88
2023-01-29T14:46:35.869Z,101100.91
2023-01-29T14:50:00.778Z,101100.00
2023-01-29T14:53:27.411Z,101094.88
2023-01-29T14:56:37.276Z,101088.75
2023-01-29T15:00:00.609Z,101100.81
2023-01-29T15:03:12.405Z,101088.59
2023-01-29T15:06:20.289Z,101094.53
2023-01-29T15:10:18.937Z,101090.31
2023-01-29T15:13:37.597Z,101080.63
2023-01-29T15:17:17.418Z,101071.88
2023-01-29T15:20:41.158Z,101077.53
2023-01-29T15:23:45.439Z,101090.41
2023-01-29T15:26:48.440Z,101084.94
2023-01-29T15:29:58.787Z,101084.09
2023-01-29T15:33:03.766Z,101080.47
2023-01-29T15:36:08.290Z,101078.72
2023-01-29T15:39:24.338Z,101079.88
2023-01-29T15:42:29.079Z,101086.28
2023-01-29T15:45:34.161Z,101090.59
2023-01-29T15:48:41.160Z,101089.69
2023-01-29T15:51:44.122Z,101092.25
2023-01-29T15:54:47.940Z,101096.56
2023-01-29T15:57:51.194Z,101084.22
2023-01-29T16:00:56.818Z,101090.06
2023-01-29T16:04:04.506Z,101092.13
2023-01-29T16:07:07.431Z,101092.84
2023-01-29T16:10:22.536Z,101091.41
2023-01-29T16:13:31.928Z,101088.09
2023-01-29T16:16:35.116Z,101099.78
2023-01-29T16:19:38.521Z,101098.88
2023-01-29T16:22:41.715Z,101101.63
2023-01-29T16:25:44.880Z,101095.94
2023-01-29T16:28:48.279Z,101100.88
2023-01-29T16:32:00.536Z,101097.75
2023-01-29T16:35:03.990Z,101118.53
2023-01-29T16:38:22.091Z,101103.94
2023-01-29T16:41:25.190Z,101114.47
2023-01-29T16:44:28.256Z,101114.97
2023-01-29T16:47:34.734Z,101113.94
2023-01-29T16:50:53.906Z,101111.19
2023-01-29T16:53:59.287Z,101114.72
2023-01-29T16:57:03.477Z,101124.94
2023-01-29T17:00:08.782Z,101121.84
2023-01-29T17:03:14.699Z,101115.31
2023-01-29T17:06:23.632Z,101119.03
2023-01-29T17:09:37.776Z,101119.22
2023-01-29T17:12:41.004Z,101123.16
2023-01-29T17:15:43.907Z,101119.09
2023-01-29T17:18:47.002Z,101111.59
2023-01-29T17:21:50.130Z,101118.97
2023-01-29T17:24:53.055Z,101112.53
2023-01-29T17:27:56.041Z,101111.25
2023-01-29T17:31:06.284Z,101113.81
2023-01-29T17:34:14.228Z,101120.91
2023-01-29T17:37:17.491Z,101118.09
2023-01-29T17:40:34.577Z,101120.91
2023-01-29T17:43:37.529Z,101112.91
2023-01-29T17:46:41.578Z,101114.16
2023-01-29T17:49:44.562Z,101115.00
2023-01-29T17:52:47.529Z,101119.09
2023-01-29T17:55:50.827Z,101119.94
2023-01-29T17:58:54.229Z,101117.44
2023-01-29T18:01:57.383Z,101111.44
2023-01-29T18:05:00.612Z,101113.63
2023-01-29T18:08:04.812Z,101106.50
2023-01-29T18:11:12.710Z,101116.25
2023-01-29T18:14:15.973Z,101117.88
2023-01-29T18:17:22.487Z,101116.00
2023-01-29T18:20:25.874Z,101109.56
2023-01-29T18:23:31.316Z,101116.47
2023-01-29T18:26:36.059Z,101108.91
2023-01-29T18:29:39.218Z,101111.63
2023-01-29T18:32:42.696Z,101088.66
2023-01-29T18:35:48.169Z,101108.50
2023-01-29T18:38:50.995Z,101106.19
2023-01-29T18:41:53.986Z,101112.13
2023-01-29T18:44:56.938Z,101096.47
2023-01-29T18:48:00.251Z,101108.91
2023-01-29T18:51:03.559Z,101103.97
2023-01-29T18:54:06.579Z,101098.84
2023-01-29T18:57:14.316Z,101115.06
2023-01-29T19:00:20.056Z,101110.81
2023-01-29T19:03:23.163Z,101094.81
2023-01-29T19:06:26.021Z,101099.63
2023-01-29T19:09:29.058Z,101103.31
2023-01-29T19:12:33.923Z,101102.91
2023-01-29T19:15:37.119Z,101099.94
2023-01-29T19:18:40.283Z,101092.03
2023-01-29T19:21:43.504Z,101105.22
2023-01-29T19:24:46.567Z,101101.00
2023-01-29T19:27:49.728Z,101106.91
2023-01-29T19:30:52.793Z,101106.00
2023-01-29T19:33:55.812Z,101091.59
2023-01-29T19:36:58.542Z,101098.28
2023-01-29T19:40:01.693Z,101099.13
2023-01-29T19:43:05.206Z,101105.28
2023-01-29T19:46:08.087Z,101097.06
2023-01-29T19:49:11.076Z,101087.03
2023-01-29T19:52:51.099Z,101097.88
2023-01-29T19:56:16.003Z,101101.91
2023-01-29T19:59:19.781Z,101093.75
2023-01-29T20:02:22.809Z,101091.88
2023-01-29T20:05:27.241Z,101091.53
2023-01-29T20:08:31.201Z,101088.00
2023-01-29T20:11:34.302Z,101068.25
2023-01-29T20:14:37.292Z,101083.81
2023-01-29T20:17:40.738Z,101090.97
2023-01-29T20:20:48.325Z,101085.88
2023-01-29T20:23:51.967Z,101088.56
2023-01-29T20:26:55.472Z,101089.31
2023-01-29T20:29:59.842Z,101086.66
2023-01-29T20:33:03.886Z,101084.78
2023-01-29T20:36:10.176Z,101090.84
2023-01-29T20:39:13.198Z,101093.16
2023-01-29T20:42:16.539Z,101089.06
2023-01-29T20:45:19.885Z,101077.28
2023-01-29T20:48:23.563Z,101075.56
2023-01-29T20:51:26.804Z,101068.88
2023-01-29T20:54:30.176Z,101069.81
2023-01-29T20:57:37.403Z,101074.34
2023-01-29T21:00:40.432Z,101070.88
2023-01-29T21:03:43.747Z,101069.88
2023-01-29T21:06:46.674Z,101068.88
2023-01-29T21:09:49.969Z,101063.28
2023-01-29T21:12:54.716Z,101062.25
2023-01-29T21:15:57.819Z,101065.91
2023-01-29T21:19:01.413Z,101061.88
2023-01-29T21:22:04.800Z,101053.81
2023-01-29T21:25:08.281Z,101065.91
2023-01-29T21:28:11.768Z,101050.22
2023-01-29T21:31:16.390Z,101054.97
2023-01-29T21:34:19.486Z,101054.16
2023-01-29T21:37:22.261Z,101052.03
2023-01-29T21:40:25.497Z,101049.06
2023-01-29T21:43:28.625Z,101045.28
2023-01-29T21:46:31.598Z,101056.22
2023-01-29T21:49:34.675Z,101053.16
2023-01-29T21:52:37.983Z,101038.28
2023-01-29T21:55:40.847Z,101024.19
2023-01-29T21:58:43.737Z,101035.66
2023-01-29T22:01:46.547Z,101040.81
2023-01-29T22:04:50.468Z,101029.88
2023-01-29T22:07:53.177Z,101032.09
2023-01-29T22:10:56.013Z,101024.78
2023-01-29T22:13:58.864Z,101030.22
2023-01-29T22:17:01.764Z,101023.66
2023-01-29T22:20:08.663Z,101024.69
2023-01-29T22:23:12.701Z,101022.31
2023-01-29T22:26:16.138Z,101021.50
2023-01-29T22:29:19.722Z,101027.41
2023-01-29T22:32:22.467Z,101020.84
2023-01-29T22:35:25.214Z,101015.25
2023-01-29T22:38:28.351Z,101013.72
2023-01-29T22:41:31.154Z,101020.06
2023-01-29T22:44:34.247Z,101013.91
2023-01-29T22:47:37.565Z,101020.97
2023-01-29T22:50:41.072Z,101031.19
2023-01-29T22:53:50.725Z,101027.06
2023-01-29T22:56:53.415Z,101015.69
2023-01-29T22:59:56.209Z,101021.44
2023-01-29T23:02:59.189Z,101020.31
2023-01-29T23:06:03.159Z,101020.13
2023-01-29T23:09:05.949Z,101014.44
2023-01-29T23:12:08.672Z,101015.91
2023-01-29T23:15:11.577Z,101012.81
2023-01-29T23:18:14.364Z,101015.41
2023-01-29T23:21:17.824Z,101009.38
2023-01-29T23:24:20.653Z,100996.50
2023-01-29T23:27:23.451Z,100999.53
2023-01-29T23:30:26.187Z,100999.28
2023-01-29T23:33:29.027Z,100994.00
2023-01-29T23:36:31.774Z,100989.41
2023-01-29T23:39:34.586Z,100988.75
2023-01-29T23:42:37.284Z,100982.16
2023-01-29T23:45:41.671Z,100969.34
2023-01-29T23:48:44.592Z,100967.69
2023-01-29T23:51:49.188Z,100974.84
2023-01-29T23:54:51.917Z,100967.19
2023-01-29T23:57:54.706Z,100978.69
